Time;durP1;ratioP1;P1;durP2;ratioP2;P2;SDS_P1;SDS_P2;PMS_P1;PMS_P2;Temp;Humidity;BMP_temperature;BMP_pressure;BME280_temperature;BME280_humidity;BME280_pressure;Samples;Min_cycle;Max_cycle;Signal;HPM_P1;HPM_P2
2023/11/28 00:01:37;;;;;;;2.55;2.00;;;2.20;99.90;;;;;;5020830;28;20188;-56
2023/11/28 00:04:03;;;;;;;4.68;2.00;;;2.30;99.90;;;;;;5020952;28;21067;-56
2023/11/28 00:06:29;;;;;;;2.78;1.80;;;2.20;99.90;;;;;;5020436;28;20190;-53
2023/11/28 00:08:55;;;;;;;4.95;2.05;;;2.20;99.90;;;;;;5019730;28;20192;-57
2023/11/28 00:11:22;;;;;;;3.80;1.88;;;2.20;99.90;;;;;;5019503;28;20191;-60
2023/11/28 00:13:49;;;;;;;4.30;2.08;;;2.20;99.90;;;;;;5019890;28;20643;-57
2023/11/28 00:16:16;;;;;;;2.35;1.80;;;2.20;99.90;;;;;;5019153;28;20192;-56
2023/11/28 00:18:43;;;;;;;4.03;2.10;;;2.20;99.90;;;;;;5021618;28;20587;-57
2023/11/28 00:21:09;;;;;;;5.30;2.00;;;2.10;99.90;;;;;;5020739;28;20303;-56
2023/11/28 00:23:35;;;;;;;5.45;2.25;;;2.10;99.90;;;;;;5019805;28;20922;-55
2023/11/28 00:26:01;;;;;;;4.40;2.00;;;2.10;99.90;;;;;;5020987;28;20560;-57
2023/11/28 00:28:27;;;;;;;3.35;2.00;;;2.10;99.90;;;;;;5018769;28;20192;-59
2023/11/28 00:30:53;;;;;;;1.90;1.70;;;2.10;99.90;;;;;;5020537;28;20199;-55
2023/11/28 00:33:20;;;;;;;3.58;1.90;;;2.10;99.90;;;;;;5003177;28;20247;-57
2023/11/28 00:35:46;;;;;;;3.50;1.88;;;2.10;99.90;;;;;;5020682;28;20192;-58
2023/11/28 00:38:12;;;;;;;6.60;2.00;;;2.10;99.90;;;;;;5020415;28;20207;-57
2023/11/28 00:40:40;;;;;;;4.50;2.03;;;2.10;99.90;;;;;;5018700;28;20710;-57
2023/11/28 00:43:06;;;;;;;2.60;2.13;;;2.00;99.90;;;;;;5019835;28;20184;-58
2023/11/28 00:45:32;;;;;;;3.22;1.95;;;2.00;99.90;;;;;;5019028;28;20678;-57
2023/11/28 00:47:58;;;;;;;3.10;2.40;;;2.00;99.90;;;;;;5019140;28;20566;-55
2023/11/28 00:50:24;;;;;;;3.65;2.40;;;2.00;99.90;;;;;;5020979;28;20188;-57
2023/11/28 00:52:50;;;;;;;3.22;2.20;;;2.00;99.90;;;;;;5019691;28;20562;-57
2023/11/28 00:55:16;;;;;;;4.18;2.70;;;2.00;99.90;;;;;;5020089;28;20286;-58
2023/11/28 00:57:46;;;;;;;3.88;2.47;;;2.00;99.90;;;;;;5020275;28;20227;-59
2023/11/28 01:00:13;;;;;;;2.60;2.28;;;2.00;99.90;;;;;;5035399;28;20232;-58
2023/11/28 01:02:42;;;;;;;4.45;2.72;;;2.00;99.90;;;;;;5002753;28;20211;-56
2023/11/28 01:05:09;;;;;;;5.45;2.30;;;2.00;99.90;;;;;;5020957;28;20168;-57
2023/11/28 01:07:35;;;;;;;3.30;2.33;;;2.00;99.90;;;;;;4991164;28;20660;-54
2023/11/28 01:10:01;;;;;;;3.58;2.30;;;2.00;99.90;;;;;;5038247;28;20196;-57
2023/11/28 01:12:27;;;;;;;3.83;2.42;;;2.00;99.90;;;;;;5022026;28;20196;-58
2023/11/28 01:14:53;;;;;;;3.75;2.28;;;2.00;99.90;;;;;;5021362;28;20275;-57
2023/11/28 01:17:19;;;;;;;3.55;2.15;;;2.00;99.90;;;;;;5023298;28;20275;-57
2023/11/28 01:19:45;;;;;;;3.40;1.95;;;1.90;99.90;;;;;;5024043;28;20204;-58
2023/11/28 01:22:11;;;;;;;4.72;2.08;;;2.00;99.90;;;;;;5022086;28;20649;-58
2023/11/28 01:24:39;;;;;;;3.08;2.00;;;2.00;99.90;;;;;;5024158;28;20211;-55
2023/11/28 01:27:05;;;;;;;2.97;1.85;;;2.00;99.90;;;;;;5023378;28;20301;-57
2023/11/28 01:29:33;;;;;;;3.28;1.80;;;2.00;99.90;;;;;;5023527;28;20187;-56
2023/11/28 01:31:59;;;;;;;2.75;1.40;;;2.00;99.90;;;;;;5054142;28;20188;-56
2023/11/28 01:34:25;;;;;;;6.10;1.90;;;2.00;99.90;;;;;;5023821;28;20188;-57
2023/11/28 01:36:51;;;;;;;5.18;1.80;;;2.00;99.90;;;;;;5026416;28;20566;-56
2023/11/28 01:39:18;;;;;;;5.95;2.08;;;2.00;99.90;;;;;;5021876;28;20215;-59
2023/11/28 01:41:48;;;;;;;4.20;1.90;;;2.00;99.90;;;;;;5023274;28;20209;-59
2023/11/28 01:44:15;;;;;;;3.90;1.80;;;2.00;99.90;;;;;;5006400;28;20188;-56
2023/11/28 01:46:42;;;;;;;2.88;1.75;;;2.00;99.90;;;;;;5022536;28;20675;-56
2023/11/28 01:49:08;;;;;;;3.35;1.83;;;2.00;99.90;;;;;;5022883;28;20195;-60
2023/11/28 01:51:36;;;;;;;2.83;1.92;;;2.10;99.90;;;;;;5022633;28;20203;-57
2023/11/28 01:54:03;;;;;;;3.00;1.88;;;2.10;99.90;;;;;;5021391;28;20194;-57
2023/11/28 01:56:31;;;;;;;3.35;1.73;;;2.10;99.90;;;;;;5021571;28;20199;-59
2023/11/28 01:58:59;;;;;;;3.40;1.77;;;2.00;99.90;;;;;;5004872;28;20195;-58
2023/11/28 02:01:26;;;;;;;4.10;1.70;;;2.10;99.90;;;;;;5022885;28;20798;-57
2023/11/28 02:03:52;;;;;;;4.07;1.83;;;2.10;99.90;;;;;;5022757;28;20778;-57
2023/11/28 02:06:18;;;;;;;3.17;2.40;;;2.10;99.90;;;;;;5021334;28;20198;-59
2023/11/28 02:08:45;;;;;;;2.28;2.03;;;2.10;99.90;;;;;;5008200;28;20195;-59
2023/11/28 02:11:11;;;;;;;3.50;2.15;;;2.10;99.90;;;;;;5022951;28;20196;-59
2023/11/28 02:13:37;;;;;;;3.78;2.00;;;2.20;99.90;;;;;;5021325;28;20730;-57
2023/11/28 02:16:15;;;;;;;7.97;2.00;;;2.20;99.90;;;;;;5021574;28;20203;-57
2023/11/28 02:18:42;;;;;;;4.07;1.70;;;2.30;99.90;;;;;;5036474;28;20196;-57
2023/11/28 02:21:10;;;;;;;4.00;2.00;;;2.40;99.90;;;;;;5021050;28;20842;-57
2023/11/28 02:23:37;;;;;;;5.70;2.10;;;2.50;99.90;;;;;;5021862;28;20176;-57
2023/11/28 02:26:06;;;;;;;3.67;1.80;;;2.60;99.90;;;;;;5022176;28;20187;-57
2023/11/28 02:28:34;;;;;;;8.15;2.20;;;2.70;99.90;;;;;;5021052;28;20198;-58
2023/11/28 02:30:59;;;;;;;3.35;2.10;;;2.70;99.90;;;;;;5020828;28;20180;-56
2023/11/28 02:33:26;;;;;;;2.83;2.00;;;2.80;99.90;;;;;;5020371;28;20219;-56
2023/11/28 02:35:52;;;;;;;7.03;2.08;;;2.80;99.90;;;;;;5021905;28;20882;-56
2023/11/28 02:38:18;;;;;;;5.47;1.83;;;2.90;99.90;;;;;;5021203;28;20214;-55
2023/11/28 02:40:44;;;;;;;4.07;2.20;;;2.90;99.90;;;;;;5020689;28;20250;-58
2023/11/28 02:43:10;;;;;;;7.30;2.55;;;3.00;99.90;;;;;;5020992;28;20211;-55
2023/11/28 02:45:36;;;;;;;2.10;1.90;;;3.00;99.90;;;;;;5022006;28;20236;-54
2023/11/28 02:48:02;;;;;;;4.63;2.58;;;3.00;99.90;;;;;;5020022;28;20229;-54
2023/11/28 02:50:28;;;;;;;6.90;2.70;;;3.10;99.90;;;;;;5020913;28;20231;-54
2023/11/28 02:52:54;;;;;;;4.70;2.42;;;3.10;99.90;;;;;;5020027;28;20270;-57
2023/11/28 02:55:20;;;;;;;4.43;2.10;;;3.10;99.90;;;;;;5020632;28;20290;-58
2023/11/28 02:57:47;;;;;;;5.43;2.13;;;3.20;99.90;;;;;;5021669;28;20215;-56
2023/11/28 03:00:13;;;;;;;5.90;2.65;;;3.20;99.90;;;;;;5019993;28;20235;-57
2023/11/28 03:02:39;;;;;;;4.43;2.20;;;3.20;99.90;;;;;;5020264;28;21102;-58
2023/11/28 03:05:06;;;;;;;7.32;2.47;;;3.20;99.90;;;;;;5020456;28;20274;-57
2023/11/28 03:07:32;;;;;;;4.18;2.33;;;3.20;99.90;;;;;;5021164;28;20763;-58
2023/11/28 03:09:58;;;;;;;5.07;2.30;;;3.30;99.90;;;;;;5021512;28;20194;-57
2023/11/28 03:12:24;;;;;;;6.47;2.60;;;3.30;99.90;;;;;;5020344;28;20746;-58
2023/11/28 03:14:50;;;;;;;6.55;2.45;;;3.30;99.90;;;;;;5003713;28;20307;-54
2023/11/28 03:17:16;;;;;;;3.90;2.42;;;3.30;99.90;;;;;;5020022;28;21299;-57
2023/11/28 03:19:42;;;;;;;7.28;2.63;;;3.30;99.90;;;;;;5020819;28;20251;-59
2023/11/28 03:22:08;;;;;;;3.75;2.30;;;3.30;99.90;;;;;;5035671;28;20210;-58
2023/11/28 03:24:33;;;;;;;6.32;2.50;;;3.30;99.90;;;;;;5021852;28;20172;-55
2023/11/28 03:26:59;;;;;;;4.70;2.50;;;3.30;99.90;;;;;;5052960;28;20204;-59
2023/11/28 03:29:25;;;;;;;4.10;2.50;;;3.30;99.90;;;;;;5019161;28;20211;-57
2023/11/28 03:31:51;;;;;;;9.25;2.25;;;3.40;99.90;;;;;;5021331;28;20191;-58
2023/11/28 03:34:17;;;;;;;4.80;2.50;;;3.30;99.90;;;;;;5021120;28;20184;-58
2023/11/28 03:36:43;;;;;;;4.60;2.70;;;3.40;99.90;;;;;;5019060;28;20242;-56
2023/11/28 03:39:10;;;;;;;4.80;2.35;;;3.40;99.90;;;;;;5019917;28;20198;-60
2023/11/28 03:41:37;;;;;;;4.32;2.60;;;3.40;99.90;;;;;;5020440;28;20207;-55
2023/11/28 03:44:03;;;;;;;4.05;2.80;;;3.40;99.90;;;;;;5020654;28;20640;-58
2023/11/28 03:46:29;;;;;;;5.57;2.70;;;3.40;99.90;;;;;;5020858;28;20275;-58
2023/11/28 03:48:55;;;;;;;5.40;2.63;;;3.40;99.90;;;;;;5019592;28;20180;-55
2023/11/28 03:51:21;;;;;;;4.63;2.67;;;3.40;99.90;;;;;;5036784;28;20510;-58
2023/11/28 03:53:47;;;;;;;7.75;3.20;;;3.40;99.90;;;;;;5020637;28;20219;-58
2023/11/28 03:56:13;;;;;;;5.90;3.10;;;3.40;99.90;;;;;;5019906;28;20188;-57
2023/11/28 03:58:41;;;;;;;4.80;2.85;;;3.40;99.90;;;;;;5020259;28;20326;-56
2023/11/28 04:01:07;;;;;;;5.90;2.75;;;3.40;99.90;;;;;;5018843;28;20220;-56
2023/11/28 04:03:33;;;;;;;8.48;2.85;;;3.30;99.90;;;;;;5018896;28;20188;-57
2023/11/28 04:05:59;;;;;;;5.68;2.92;;;3.30;99.90;;;;;;5020055;28;20652;-54
2023/11/28 04:08:25;;;;;;;10.18;3.33;;;3.30;99.90;;;;;;5020388;28;20191;-57
2023/11/28 04:10:51;;;;;;;7.95;2.95;;;3.30;99.90;;;;;;5020737;28;20188;-57
2023/11/28 04:13:17;;;;;;;4.68;3.17;;;3.40;99.90;;;;;;5020639;28;20192;-57
2023/11/28 04:15:43;;;;;;;6.65;3.20;;;3.40;99.90;;;;;;5005792;28;20203;-58
2023/11/28 04:18:10;;;;;;;4.53;3.50;;;3.40;99.90;;;;;;5019432;28;20540;-58
2023/11/28 04:20:36;;;;;;;5.15;3.40;;;3.40;99.90;;;;;;5019607;28;20211;-58
2023/11/28 04:23:04;;;;;;;6.25;3.50;;;3.40;99.90;;;;;;5019028;28;20202;-54
2023/11/28 04:25:30;;;;;;;7.38;3.25;;;3.40;99.90;;;;;;5018799;28;20715;-56
2023/11/28 04:27:56;;;;;;;4.47;3.67;;;3.30;99.90;;;;;;5035895;28;21680;-54
2023/11/28 04:30:22;;;;;;;7.00;3.40;;;3.30;99.90;;;;;;5019939;28;20684;-58
2023/11/28 04:32:49;;;;;;;7.05;2.92;;;3.30;99.90;;;;;;5002488;28;20191;-57
2023/11/28 04:35:15;;;;;;;4.13;2.65;;;3.20;99.90;;;;;;5019414;28;20674;-55
2023/11/28 04:37:41;;;;;;;7.00;3.00;;;3.20;99.90;;;;;;5019164;28;20702;-61
2023/11/28 04:40:07;;;;;;;5.00;2.42;;;3.20;99.90;;;;;;5019126;28;20216;-57
2023/11/28 04:42:33;;;;;;;4.05;2.67;;;3.10;99.90;;;;;;5021783;28;20257;-58
2023/11/28 04:44:59;;;;;;;6.35;2.70;;;3.10;99.90;;;;;;5022787;28;20184;-58
2023/11/28 04:47:25;;;;;;;4.78;2.95;;;3.10;99.90;;;;;;5038965;28;20183;-57
2023/11/28 04:49:52;;;;;;;7.22;3.17;;;3.20;99.90;;;;;;5024014;28;20215;-57
2023/11/28 04:52:17;;;;;;;9.10;3.05;;;3.10;99.90;;;;;;5055920;28;20560;-53
2023/11/28 04:54:43;;;;;;;6.05;3.30;;;3.20;99.90;;;;;;5022614;28;20180;-56
2023/11/28 04:57:09;;;;;;;5.85;3.20;;;3.10;99.90;;;;;;5005935;28;20190;-60
2023/11/28 04:59:36;;;;;;;5.57;3.35;;;3.20;99.90;;;;;;5022606;28;20203;-57
2023/11/28 05:02:03;;;;;;;6.55;3.40;;;3.20;99.90;;;;;;5008587;28;20546;-53
2023/11/28 05:04:28;;;;;;;3.80;2.95;;;3.20;99.90;;;;;;5022018;28;20184;-58
2023/11/28 05:06:54;;;;;;;5.78;3.42;;;3.20;99.90;;;;;;5044279;28;20236;-52
2023/11/28 05:09:21;;;;;;;4.15;3.05;;;3.20;99.90;;;;;;5022082;28;20196;-54
2023/11/28 05:11:47;;;;;;;5.43;3.50;;;3.20;99.90;;;;;;5024479;28;20192;-55
2023/11/28 05:14:14;;;;;;;8.00;3.78;;;3.20;99.90;;;;;;5023703;28;21310;-57
2023/11/28 05:16:40;;;;;;;7.57;3.60;;;3.20;99.90;;;;;;5006411;28;20204;-57
2023/11/28 05:19:07;;;;;;;6.72;3.72;;;3.20;99.90;;;;;;5022215;28;20199;-57
2023/11/28 05:21:36;;;;;;;6.78;3.90;;;3.20;99.90;;;;;;5021930;28;20571;-57
2023/11/28 05:24:03;;;;;;;8.02;3.70;;;3.20;99.90;;;;;;5021472;28;20611;-59
2023/11/28 05:26:28;;;;;;;9.50;4.00;;;3.20;99.90;;;;;;5022173;28;20539;-55
2023/11/28 05:28:55;;;;;;;7.22;3.30;;;3.20;99.90;;;;;;5022005;28;20199;-56
2023/11/28 05:31:21;;;;;;;7.53;3.90;;;3.20;99.90;;;;;;5019858;28;20473;-58
2023/11/28 05:33:47;;;;;;;4.90;3.28;;;3.30;99.90;;;;;;5021698;28;20180;-60
2023/11/28 05:36:13;;;;;;;4.70;3.20;;;3.30;99.90;;;;;;5037695;28;20401;-55
2023/11/28 05:38:40;;;;;;;5.72;3.00;;;3.30;99.90;;;;;;5021640;28;20667;-57
2023/11/28 05:41:07;;;;;;;7.57;2.85;;;3.20;99.90;;;;;;5021867;28;20265;-58
2023/11/28 05:43:33;;;;;;;7.18;3.20;;;3.30;99.90;;;;;;5011322;28;20568;-58
2023/11/28 05:45:59;;;;;;;4.88;3.17;;;3.30;99.90;;;;;;5023922;28;20187;-55
2023/11/28 05:48:25;;;;;;;6.45;3.35;;;3.30;99.90;;;;;;5022911;28;20243;-57
2023/11/28 05:50:53;;;;;;;4.72;3.08;;;3.20;99.90;;;;;;5023204;28;20302;-59
2023/11/28 05:53:20;;;;;;;6.28;3.30;;;3.20;99.90;;;;;;5021062;28;20199;-57
2023/11/28 05:55:47;;;;;;;5.22;2.90;;;3.20;99.90;;;;;;5054496;28;20196;-61
2023/11/28 05:58:14;;;;;;;5.90;3.00;;;3.20;99.90;;;;;;5021984;28;20660;-55
2023/11/28 06:00:41;;;;;;;6.63;3.20;;;3.20;99.90;;;;;;5019702;28;20693;-59
2023/11/28 06:03:08;;;;;;;4.88;2.97;;;3.20;99.90;;;;;;5021704;28;20209;-55
2023/11/28 06:05:35;;;;;;;9.38;6.22;;;3.20;99.90;;;;;;5021199;28;21389;-54
2023/11/28 06:08:04;;;;;;;8.63;3.50;;;3.20;99.90;;;;;;5017403;28;20342;-58
2023/11/28 06:10:30;;;;;;;4.10;2.90;;;3.30;99.90;;;;;;5021449;28;20192;-59
2023/11/28 06:12:57;;;;;;;4.55;3.05;;;3.40;99.90;;;;;;5020899;28;20196;-56
2023/11/28 06:15:23;;;;;;;6.85;3.08;;;3.40;99.90;;;;;;5021494;28;20620;-57
2023/11/28 06:17:49;;;;;;;5.20;3.20;;;3.30;99.90;;;;;;5022515;28;20207;-57
2023/11/28 06:20:15;;;;;;;4.50;3.08;;;3.40;99.90;;;;;;5021068;28;20612;-59
2023/11/28 06:22:45;;;;;;;4.63;2.85;;;3.30;99.90;;;;;;5020959;28;20220;-53
2023/11/28 06:25:11;;;;;;;5.72;2.63;;;3.40;99.90;;;;;;5022441;28;20199;-60
2023/11/28 06:27:37;;;;;;;5.57;2.70;;;3.30;99.90;;;;;;5022758;28;20233;-57
2023/11/28 06:30:06;;;;;;;4.28;2.75;;;3.30;99.90;;;;;;5021483;28;22259;-58
2023/11/28 06:32:33;;;;;;;3.00;2.30;;;3.20;99.90;;;;;;5021455;28;20203;-55
2023/11/28 06:34:59;;;;;;;5.25;2.40;;;3.20;99.90;;;;;;5035943;28;20200;-58
2023/11/28 06:37:25;;;;;;;3.45;2.65;;;3.20;99.90;;;;;;5021480;28;20611;-53
2023/11/28 06:39:51;;;;;;;5.75;2.40;;;3.10;99.90;;;;;;5022541;28;20298;-57
2023/11/28 06:42:19;;;;;;;5.03;2.45;;;3.20;99.90;;;;;;5021732;28;20215;-59
2023/11/28 06:44:44;;;;;;;5.55;2.80;;;3.10;99.90;;;;;;5021407;28;20625;-57
2023/11/28 06:47:10;;;;;;;8.52;2.30;;;3.20;99.90;;;;;;5035796;28;20224;-57
2023/11/28 06:49:36;;;;;;;5.85;2.30;;;3.10;99.90;;;;;;5021899;28;21356;-58
2023/11/28 06:52:02;;;;;;;5.05;2.13;;;3.10;99.90;;;;;;5021603;28;20187;-58
2023/11/28 06:54:29;;;;;;;4.78;2.45;;;3.10;99.90;;;;;;5020727;28;20200;-58
2023/11/28 06:56:55;;;;;;;3.28;2.17;;;3.20;99.90;;;;;;5021967;28;20270;-54
2023/11/28 06:59:21;;;;;;;3.08;2.20;;;3.10;99.90;;;;;;5021493;28;20234;-56
2023/11/28 07:01:48;;;;;;;5.43;2.35;;;3.20;99.90;;;;;;5053059;28;20204;-59
2023/11/28 07:04:14;;;;;;;4.45;2.60;;;3.10;99.90;;;;;;5019670;28;20209;-58
2023/11/28 07:06:40;;;;;;;4.80;2.80;;;3.20;99.90;;;;;;5019530;28;20196;-56
2023/11/28 07:09:06;;;;;;;4.18;2.30;;;3.20;99.90;;;;;;5021442;28;20199;-54
2023/11/28 07:11:33;;;;;;;4.75;2.60;;;3.20;99.90;;;;;;5021156;28;20275;-55
2023/11/28 07:14:02;;;;;;;5.22;2.67;;;3.20;99.90;;;;;;5019792;28;20208;-58
2023/11/28 07:16:28;;;;;;;4.75;2.40;;;3.20;99.90;;;;;;5019089;28;20230;-61
2023/11/28 07:18:54;;;;;;;3.25;2.05;;;3.20;99.90;;;;;;5020665;28;20759;-56
2023/11/28 07:21:20;;;;;;;4.88;2.60;;;3.20;99.90;;;;;;5019384;28;20262;-55
2023/11/28 07:23:46;;;;;;;4.35;2.70;;;3.20;99.90;;;;;;5019045;28;20297;-58
2023/11/28 07:26:14;;;;;;;5.55;2.70;;;3.30;99.90;;;;;;5020635;28;20187;-54
2023/11/28 07:28:40;;;;;;;4.55;2.53;;;3.20;99.90;;;;;;5020554;28;20267;-55
2023/11/28 07:31:06;;;;;;;5.80;3.42;;;3.30;99.90;;;;;;5020586;28;20206;-55
2023/11/28 07:33:32;;;;;;;7.00;2.95;;;3.30;99.90;;;;;;5020518;28;20200;-45
2023/11/28 07:35:58;;;;;;;6.85;3.28;;;3.30;99.90;;;;;;5019565;28;20196;-45
2023/11/28 07:38:24;;;;;;;11.70;3.63;;;3.30;99.90;;;;;;5040144;28;20200;-41
2023/11/28 07:40:51;;;;;;;6.45;3.40;;;3.30;99.90;;;;;;5020669;28;20215;-42
2023/11/28 07:43:17;;;;;;;7.68;4.30;;;3.30;99.90;;;;;;5020312;28;20232;-40
2023/11/28 07:45:43;;;;;;;9.93;3.75;;;3.30;99.90;;;;;;5019912;28;20241;-49
2023/11/28 07:48:09;;;;;;;5.53;3.60;;;3.30;99.90;;;;;;5019931;28;20336;-42
2023/11/28 07:50:35;;;;;;;6.18;3.95;;;3.30;99.90;;;;;;5020023;28;20203;-42
2023/11/28 07:53:01;;;;;;;6.78;3.40;;;3.20;99.90;;;;;;5019910;28;20192;-44
2023/11/28 07:55:27;;;;;;;8.27;5.38;;;3.20;99.90;;;;;;5020372;28;20222;-41
2023/11/28 07:57:53;;;;;;;8.48;3.70;;;3.20;99.90;;;;;;5018387;28;20187;-39
2023/11/28 08:00:21;;;;;;;5.75;3.58;;;3.20;99.90;;;;;;5019700;28;20219;-41
2023/11/28 08:02:47;;;;;;;8.73;3.83;;;3.20;99.90;;;;;;5050600;28;20186;-41
2023/11/28 08:05:13;;;;;;;7.97;3.90;;;3.30;99.90;;;;;;5018919;28;20184;-42
2023/11/28 08:07:40;;;;;;;6.88;3.90;;;3.30;99.90;;;;;;5019924;28;20235;-39
2023/11/28 08:10:10;;;;;;;7.78;4.05;;;3.30;99.90;;;;;;5019255;28;20191;-41
2023/11/28 08:12:36;;;;;;;6.53;4.22;;;3.30;99.90;;;;;;5018576;28;20663;-42
2023/11/28 08:15:02;;;;;;;6.97;3.97;;;3.30;99.90;;;;;;5020239;28;20699;-44
2023/11/28 08:17:28;;;;;;;9.43;4.30;;;3.30;99.90;;;;;;5023690;28;20259;-46
2023/11/28 08:19:54;;;;;;;8.68;3.85;;;3.30;99.90;;;;;;5023241;28;20221;-41
2023/11/28 08:22:19;;;;;;;9.23;4.28;;;3.50;99.90;;;;;;5022698;28;20270;-41
2023/11/28 08:24:45;;;;;;;6.40;4.00;;;3.60;99.90;;;;;;5020828;28;20196;-39
2023/11/28 08:27:15;;;;;;;8.27;4.10;;;3.60;99.90;;;;;;5023070;28;20192;-39
2023/11/28 08:29:41;;;;;;;7.72;4.18;;;3.70;99.90;;;;;;5023271;28;21319;-42
2023/11/28 08:32:08;;;;;;;7.28;3.70;;;3.70;99.90;;;;;;5022522;28;20183;-41
2023/11/28 08:34:34;;;;;;;7.63;4.00;;;3.80;99.90;;;;;;5021045;28;20196;-41
2023/11/28 08:37:00;;;;;;;8.02;4.07;;;3.80;99.90;;;;;;5020091;28;20649;-44
2023/11/28 08:39:26;;;;;;;6.50;3.28;;;3.80;99.90;;;;;;5020969;28;20203;-45
2023/11/28 08:41:54;;;;;;;6.13;4.15;;;3.80;99.90;;;;;;5021751;28;20243;-42
2023/11/28 08:44:20;;;;;;;6.55;3.58;;;3.80;99.90;;;;;;5022649;28;20188;-45
2023/11/28 08:46:46;;;;;;;6.70;3.63;;;3.90;99.90;;;;;;5020836;28;20460;-43
2023/11/28 08:49:12;;;;;;;8.65;3.60;;;3.90;99.90;;;;;;5022439;28;20188;-44
2023/11/28 08:51:40;;;;;;;8.25;3.67;;;4.00;99.90;;;;;;5022578;28;20199;-40
2023/11/28 08:54:06;;;;;;;8.13;3.50;;;4.00;99.90;;;;;;5022140;28;20275;-41
2023/11/28 08:56:32;;;;;;;6.70;3.28;;;4.00;99.90;;;;;;5022304;28;20192;-41
2023/11/28 08:58:58;;;;;;;7.88;3.75;;;4.10;99.90;;;;;;5022034;28;20200;-42
2023/11/28 09:01:23;;;;;;;6.65;3.40;;;4.10;99.90;;;;;;5021059;28;20273;-42
2023/11/28 09:03:50;;;;;;;7.25;3.50;;;4.10;99.90;;;;;;5021634;28;20176;-40
2023/11/28 09:06:17;;;;;;;7.25;3.50;;;4.10;99.90;;;;;;5023057;28;20274;-41
2023/11/28 09:08:42;;;;;;;8.38;3.47;;;4.20;99.90;;;;;;5022663;28;21004;-42
2023/11/28 09:11:08;;;;;;;7.55;3.60;;;4.20;99.90;;;;;;5024211;28;20203;-43
2023/11/28 09:13:34;;;;;;;7.10;3.70;;;4.20;99.90;;;;;;5023236;28;20180;-47
2023/11/28 09:16:05;;;;;;;8.95;3.00;;;4.30;99.90;;;;;;5022821;28;20257;-42
2023/11/28 09:18:32;;;;;;;6.80;3.13;;;4.30;99.90;;;;;;5023473;28;20234;-41
2023/11/28 09:20:57;;;;;;;5.10;3.00;;;4.30;99.90;;;;;;5021085;28;20224;-41
2023/11/28 09:23:24;;;;;;;8.95;3.30;;;4.30;99.90;;;;;;5021861;28;21390;-40
2023/11/28 09:25:50;;;;;;;9.77;6.57;;;4.30;99.90;;;;;;5021500;28;20188;-43
2023/11/28 09:28:16;;;;;;;7.47;3.00;;;4.30;99.90;;;;;;5021010;28;20198;-47
2023/11/28 09:30:42;;;;;;;4.95;2.90;;;4.30;99.90;;;;;;5023134;28;20206;-44
2023/11/28 09:33:08;;;;;;;7.63;3.70;;;4.30;99.90;;;;;;5054429;28;20184;-42
2023/11/28 09:35:34;;;;;;;6.15;3.00;;;4.30;99.90;;;;;;5020759;28;20204;-43
2023/11/28 09:38:00;;;;;;;6.57;3.42;;;4.30;99.90;;;;;;5021026;28;20195;-41
2023/11/28 09:40:26;;;;;;;5.38;3.40;;;4.30;99.90;;;;;;5022341;28;20203;-42
2023/11/28 09:42:54;;;;;;;6.07;3.13;;;4.20;99.90;;;;;;5021568;28;20211;-42
2023/11/28 09:45:21;;;;;;;9.40;4.72;;;4.20;99.90;;;;;;5023367;28;20188;-39
2023/11/28 09:47:48;;;;;;;5.07;3.13;;;4.10;99.90;;;;;;5022548;28;20568;-42
2023/11/28 09:50:15;;;;;;;14.40;6.28;;;4.20;99.90;;;;;;5022882;28;20676;-39
2023/11/28 09:52:45;;;;;;;14.80;7.45;;;4.10;99.90;;;;;;5022605;28;20218;-46
2023/11/28 09:55:15;;;;;;;18.17;6.57;;;4.10;99.90;;;;;;5020526;28;20414;-42
2023/11/28 09:57:48;;;;;;;4.90;3.15;;;4.20;99.90;;;;;;5022607;28;20187;-40
2023/11/28 10:00:19;;;;;;;27.52;12.70;;;4.20;99.90;;;;;;5022002;28;20350;-50
2023/11/28 10:02:54;;;;;;;8.55;4.32;;;4.30;99.90;;;;;;5022292;28;20226;-44
2023/11/28 10:05:20;;;;;;;5.45;2.90;;;4.40;99.90;;;;;;5021802;28;20183;-41
2023/11/28 10:07:54;;;;;;;4.10;3.25;;;4.50;99.90;;;;;;5022357;28;20593;-42
2023/11/28 10:10:21;;;;;;;8.27;3.55;;;4.60;99.90;;;;;;5022021;28;20194;-42
2023/11/28 10:12:50;;;;;;;6.32;3.00;;;4.70;99.90;;;;;;5022254;28;20195;-44
2023/11/28 10:15:17;;;;;;;6.72;2.92;;;4.80;99.90;;;;;;5006230;28;20192;-46
2023/11/28 10:17:44;;;;;;;4.57;3.22;;;4.80;99.90;;;;;;5020778;28;21343;-42
2023/11/28 10:20:10;;;;;;;5.88;2.67;;;4.90;99.90;;;;;;5021775;28;20714;-42
2023/11/28 10:22:40;;;;;;;4.85;3.15;;;4.90;99.90;;;;;;5022050;28;21297;-42
2023/11/28 10:25:07;;;;;;;5.35;3.10;;;5.00;99.90;;;;;;5021668;28;20188;-41
2023/11/28 10:27:43;;;;;;;5.47;2.90;;;5.00;99.90;;;;;;5020322;28;20188;-40
2023/11/28 10:30:11;;;;;;;6.70;3.33;;;5.10;99.90;;;;;;5053787;28;20199;-42
2023/11/28 10:32:38;;;;;;;4.60;3.30;;;5.10;99.90;;;;;;5020415;28;20203;-41
2023/11/28 10:35:07;;;;;;;7.15;2.92;;;5.10;99.90;;;;;;5021983;28;20196;-45
2023/11/28 10:37:36;;;;;;;7.60;3.38;;;5.20;99.90;;;;;;5020754;28;20203;-42
2023/11/28 10:40:10;;;;;;;4.43;2.65;;;5.20;99.90;;;;;;5022335;28;20245;-42
2023/11/28 10:42:37;;;;;;;4.43;2.80;;;5.30;99.90;;;;;;5018944;28;20208;-43
2023/11/28 10:45:06;;;;;;;5.75;3.03;;;5.30;99.90;;;;;;5021703;28;20184;-44
2023/11/28 10:47:33;;;;;;;6.95;3.10;;;5.30;99.90;;;;;;5021743;28;20192;-44
2023/11/28 10:49:59;;;;;;;6.40;3.38;;;5.20;99.90;;;;;;5022157;28;20195;-42
2023/11/28 10:52:28;;;;;;;3.38;2.72;;;5.20;99.90;;;;;;5021728;28;20789;-41
2023/11/28 10:54:56;;;;;;;5.03;2.88;;;5.20;99.90;;;;;;5022112;28;20211;-44
2023/11/28 10:57:27;;;;;;;14.70;8.27;;;5.10;99.90;;;;;;5020781;28;20314;-46
2023/11/28 11:00:01;;;;;;;5.78;3.38;;;5.10;99.90;;;;;;5020987;28;20211;-44
2023/11/28 11:02:29;;;;;;;5.85;3.10;;;5.10;99.90;;;;;;5020309;28;20184;-42
2023/11/28 11:04:55;;;;;;;4.95;3.05;;;5.10;99.90;;;;;;5021692;28;20184;-42
2023/11/28 11:07:21;;;;;;;6.68;3.17;;;5.10;99.90;;;;;;5021109;28;20184;-43
2023/11/28 11:09:49;;;;;;;5.22;3.15;;;5.10;99.90;;;;;;5019431;28;20210;-45
2023/11/28 11:12:17;;;;;;;6.38;3.55;;;5.10;99.90;;;;;;5020857;28;20192;-39
2023/11/28 11:15:12;;;;;;;4.88;3.30;;;5.00;99.90;;;;;;5021346;28;20184;-43
2023/11/28 11:18:11;;;;;;;3.88;2.90;;;5.00;99.90;;;;;;5021264;28;20200;-44
2023/11/28 11:20:39;;;;;;;8.35;4.93;;;4.90;99.90;;;;;;5035895;28;21022;-43
2023/11/28 11:23:06;;;;;;;4.85;2.92;;;4.90;99.90;;;;;;5020263;28;20200;-41
2023/11/28 11:25:40;;;;;;;5.20;2.90;;;4.80;99.90;;;;;;5021059;28;20207;-42
2023/11/28 11:28:07;;;;;;;4.15;3.47;;;4.70;99.90;;;;;;5021273;28;20183;-40
2023/11/28 11:30:37;;;;;;;6.30;2.92;;;4.70;99.90;;;;;;5020582;28;20176;-46
2023/11/28 11:33:10;;;;;;;6.35;2.63;;;4.60;99.90;;;;;;5020219;28;20283;-42
2023/11/28 11:35:58;;;;;;;5.60;2.90;;;4.50;99.90;;;;;;5021210;28;20546;-41
2023/11/28 11:38:28;;;;;;;5.63;2.90;;;4.50;99.90;;;;;;5020748;28;20285;-41
2023/11/28 11:40:58;;;;;;;6.28;3.17;;;4.50;99.90;;;;;;5019337;28;20291;-42
2023/11/28 11:43:26;;;;;;;8.00;3.90;;;4.50;99.90;;;;;;5019997;28;20191;-42
2023/11/28 11:45:53;;;;;;;9.07;3.67;;;4.50;99.90;;;;;;5019514;28;20172;-42
2023/11/28 11:48:25;;;;;;;5.78;2.95;;;4.40;99.90;;;;;;5002396;28;20200;-41
2023/11/28 11:50:55;;;;;;;6.93;3.60;;;4.40;99.90;;;;;;5020391;28;20644;-43
2023/11/28 11:53:21;;;;;;;5.10;3.10;;;4.40;99.90;;;;;;5020607;28;21399;-48
2023/11/28 11:55:48;;;;;;;7.50;2.95;;;4.30;99.90;;;;;;5019512;28;20192;-41
2023/11/28 11:58:14;;;;;;;9.40;3.08;;;4.30;99.90;;;;;;5020214;28;20819;-46
2023/11/28 12:00:41;;;;;;;4.28;2.92;;;4.30;99.90;;;;;;5018710;28;20305;-46
2023/11/28 12:03:08;;;;;;;3.78;2.45;;;4.30;99.90;;;;;;5020366;28;20616;-44
2023/11/28 12:05:35;;;;;;;3.70;2.78;;;4.30;99.90;;;;;;5020041;28;20199;-40
2023/11/28 12:08:02;;;;;;;7.18;3.20;;;4.30;99.90;;;;;;5019848;28;20191;-44
2023/11/28 12:10:28;;;;;;;6.28;2.90;;;4.30;99.90;;;;;;5020149;28;20184;-46
2023/11/28 12:12:54;;;;;;;4.85;2.65;;;4.20;99.90;;;;;;5052442;28;20198;-44
2023/11/28 12:15:20;;;;;;;9.68;2.90;;;4.20;99.90;;;;;;5020296;28;20626;-45
2023/11/28 12:17:51;;;;;;;4.97;2.97;;;4.20;99.90;;;;;;5019970;28;20270;-47
2023/11/28 12:20:17;;;;;;;23.20;14.00;;;4.20;99.90;;;;;;5035314;28;20261;-41
2023/11/28 12:22:43;;;;;;;6.93;4.43;;;4.10;99.90;;;;;;5002616;28;20736;-40
2023/11/28 12:25:19;;;;;;;6.38;4.22;;;4.20;99.90;;;;;;5020626;28;20187;-48
2023/11/28 12:27:46;;;;;;;5.82;3.63;;;4.20;99.90;;;;;;5020161;28;20674;-42
2023/11/28 12:30:14;;;;;;;7.45;3.17;;;4.10;99.90;;;;;;5020370;28;20188;-42
2023/11/28 12:32:40;;;;;;;5.25;3.67;;;4.10;99.90;;;;;;5019957;28;20202;-43
2023/11/28 12:35:06;;;;;;;8.40;3.30;;;4.10;99.90;;;;;;5020508;28;20192;-42
2023/11/28 12:37:32;;;;;;;5.15;3.45;;;4.20;99.90;;;;;;5019971;28;20218;-45
2023/11/28 12:39:59;;;;;;;7.45;2.85;;;4.10;99.90;;;;;;5020373;28;20687;-44
2023/11/28 12:42:25;;;;;;;5.78;3.20;;;4.10;99.90;;;;;;5020206;28;20188;-46
2023/11/28 12:44:51;;;;;;;4.82;3.40;;;4.20;99.90;;;;;;5020167;28;20184;-42
2023/11/28 12:47:18;;;;;;;4.53;2.80;;;4.20;99.90;;;;;;5020223;28;20195;-40
2023/11/28 12:49:45;;;;;;;10.77;3.85;;;4.20;99.90;;;;;;5050846;28;20199;-44
2023/11/28 12:52:14;;;;;;;9.00;3.40;;;4.20;99.90;;;;;;4973270;28;20570;-42
2023/11/28 12:54:41;;;;;;;5.78;2.97;;;4.20;99.90;;;;;;5018688;28;20296;-40
2023/11/28 12:57:12;;;;;;;8.82;3.10;;;4.20;99.90;;;;;;5020111;28;20204;-43